Airport Name : Cam Ranh

Other Name : Cam Ranh

ICAO : VVCR

IATA :

FAA :

Latitude : 11.998153

Longitude : 109.219372

Country : Vietnam

Local Date and Time : 4/21/2018 4:59:00 PM

 

TAF (Terminal Aerodrome Forecast)

TAF VVCR 210500Z 2106/2206 10010KT 9999 SCT015

 

METAR (METeorological Aerodrome Report)

VVCR 210930Z 12007KT 080V150 CAVOK 31/25 Q1009 NOSIG

VVCR 210900Z 11008KT CAVOK 30/24 Q1008 NOSIG

VVCR 210830Z 11009KT CAVOK 31/24 Q1008 NOSIG

VVCR 210800Z 11010KT 9999 FEW015 31/24 Q1009 NOSIG

VVCR 210730Z 12011KT 9999 FEW015 32/24 Q1009 NOSIG

VVCR 210700Z 11012KT 9999 FEW015 32/23 Q1010 NOSIG

VVCR 210630Z 11012KT 9999 FEW015 32/24 Q1010 NOSIG

VVCR 210600Z 11010KT 9999 FEW015 32/24 Q1011 NOSIG